Impacts METAR Board INFO
IDs:

KMSP - Minneapolis-St Paul, MN, US

Updated at: 1815 UTC 22 Jan 2018
Potential Impact None Slight Moderate High
Time22/06Z 22/07Z 22/08Z 22/09Z 22/10Z 22/11Z 22/12Z 22/13Z 22/14Z 22/15Z 22/16Z 22/17Z 22/18Z
VIS10 10 10 10 10 6 10 10 10 10 2.5 0.75 0.5
CIG100 100 80 95 50 36 14 13 15 55 24 9 8
CoverOVCOVCOVCOVCOVCOVCOVCOVCOVCOVCOVCOVXOVX
FltCatVFRVFRVFRVFRVFRVFRMVFRMVFRMVFRVFRIFRLIFRLIFR
WX-----------SN BR---------SN BR-SN BRSN
WDir10202030303030302020202010
WSpd10 9 13 16 17 14 15 15 15 17 13 15 19
WGst-- -- -- -- 24 -- 24 -- 21 -- 20 24 24
Raw hourly METARs
KMSP 220553Z 01010KT 10SM OVC100 02/M01 A2992 RMK AO2 SLP140 4/001 T00171011 10028 20017 400390000 58007
KMSP 220653Z 02009KT 10SM OVC100 02/M01 A2990 RMK AO2 SLP132 T00171011
KMSP 220753Z 02013KT 10SM OVC080 01/M01 A2989 RMK AO2 SLP128 T00111011
KMSP 220853Z 03016KT 10SM OVC095 01/M01 A2986 RMK AO2 SLP119 T00061011 58020
KMSP 220953Z 03017G24KT 10SM OVC050 01/M01 A2984 RMK AO2 SLP113 T00061011
KMSP 221053Z 03014KT 6SM -SN BR SCT013 OVC036 01/M01 A2983 RMK AO2 SNB11 SLP110 P0000 T00061006
KMSP 221153Z 03015G24KT 10SM OVC014 01/M01 A2982 RMK AO2 SNE34 SLP106 4/001 P0000 60000 T00061011 10017 20006 56013
KMSP 221253Z 03015KT 10SM OVC013 00/M01 A2981 RMK AO2 PK WND 03026/1211 SLP102 T00001011
KMSP 221353Z 02015G21KT 10SM BKN015 OVC050 00/M02 A2978 RMK AO2 SLP092 T00001017
KMSP 221453Z 02017KT 10SM SCT015 SCT046 OVC055 M01/M02 A2976 RMK AO2 SLP086 PRESENT WX VCSH T10061022 58019
KMSP 221604Z 02013G20KT 2 1/2SM -SN BR SCT012 OVC024 M01/M02 A2975 RMK AO2 P0000 T10061017
KMSP 221702Z 02015G24KT 3/4SM R30L/2800V4500FT -SN BR VV009 M01/M02 A2974 RMK AO2 P0000 T10111017
KMSP 221753Z 01019G24KT 1/2SM R30L/2600V3000FT SN VV008 M01/M02 A2970 RMK AO2 SLP066 4/001 P0004 60005 T10111017 10006 21011 58017